Sant Adria de Besos, Spain
Current Conditions -  °F | °C
As of 10:00 AM on Monday 24 Nov 2014 (Local Time) from LELL Reporting Station
Few Clouds Few Clouds  
Wind Chill: 64°   Ceiling: Unl
Heat Index: 64°   Visibility: 6mi
Dew Point: 57°   Wind: 5mph
Humidity: 77%   Direction: 70°ENE
Pressure: 30.06"   Gusts: NA
Location:  41.43°N, 2.22°E
Report Text: LELL 240900Z 07004KT 020V130 9999 FEW020 18/14 Q1018
Loading
Personal Weather Stations






























Interactive Weather Map New forecast layout! Learn more

10-Day Weather Forecast

Advertisements
Track Severe Weather on mobile